createdAt,value
2023-03-18T00:01:13.758Z,5.53
2023-03-18T00:03:40.994Z,5.49
2023-03-18T00:06:17.047Z,5.45
2023-03-18T00:08:46.512Z,5.37
2023-03-18T00:11:15.993Z,5.33
2023-03-18T00:13:43.911Z,5.30
2023-03-18T00:16:12.830Z,5.31
2023-03-18T00:18:40.760Z,5.27
2023-03-18T00:21:10.026Z,5.22
2023-03-18T00:23:38.887Z,5.16
2023-03-18T00:26:09.203Z,5.12
2023-03-18T00:28:38.444Z,5.13
2023-03-18T00:31:11.353Z,5.18
2023-03-18T00:33:50.640Z,5.23
2023-03-18T00:36:19.412Z,5.21
2023-03-18T00:38:51.331Z,5.16
2023-03-18T00:41:19.411Z,5.12
2023-03-18T00:43:54.753Z,5.08
2023-03-18T00:46:28.218Z,5.09
2023-03-18T00:48:57.773Z,5.08
2023-03-18T00:51:26.866Z,5.05
2023-03-18T00:54:06.863Z,5.01
2023-03-18T00:56:37.860Z,4.94
2023-03-18T00:59:06.727Z,4.91
2023-03-18T01:01:34.683Z,4.85
2023-03-18T01:04:02.954Z,4.88
2023-03-18T01:06:32.783Z,4.84
2023-03-18T01:09:02.898Z,4.82
2023-03-18T01:11:37.507Z,4.86
2023-03-18T01:14:05.043Z,4.84
2023-03-18T01:16:32.462Z,4.82
2023-03-18T01:19:07.086Z,4.87
2023-03-18T01:21:34.718Z,4.80
2023-03-18T01:24:08.455Z,4.76
2023-03-18T01:26:37.210Z,4.68
2023-03-18T01:29:04.975Z,4.68
2023-03-18T01:31:32.618Z,4.67
2023-03-18T01:34:00.105Z,4.68
2023-03-18T01:36:28.601Z,4.65
2023-03-18T01:38:58.210Z,4.67
2023-03-18T01:41:26.358Z,4.66
2023-03-18T01:43:55.878Z,4.68
2023-03-18T01:46:39.757Z,4.69
2023-03-18T01:49:20.917Z,4.75
2023-03-18T01:52:13.090Z,4.66
2023-03-18T01:54:47.817Z,4.68
2023-03-18T01:57:17.620Z,4.62
2023-03-18T01:59:46.346Z,4.67
2023-03-18T02:02:16.571Z,4.74
2023-03-18T02:04:56.829Z,4.69
2023-03-18T02:07:35.513Z,4.74
2023-03-18T02:10:11.302Z,4.79
2023-03-18T02:12:49.386Z,4.78
2023-03-18T02:15:19.926Z,4.78
2023-03-18T02:17:55.687Z,4.77
2023-03-18T02:20:44.910Z,4.73
2023-03-18T02:23:25.917Z,4.70
2023-03-18T02:26:13.928Z,4.66
2023-03-18T02:28:44.074Z,4.65
2023-03-18T02:31:17.049Z,4.61
2023-03-18T02:33:46.752Z,4.59
2023-03-18T02:36:25.610Z,4.48
2023-03-18T02:38:52.738Z,4.43
2023-03-18T02:41:23.922Z,4.37
2023-03-18T02:43:53.403Z,4.34
2023-03-18T02:46:35.868Z,4.31
2023-03-18T02:49:08.126Z,4.22
2023-03-18T02:51:37.325Z,4.23
2023-03-18T02:54:15.799Z,4.19
2023-03-18T02:56:43.852Z,4.19
2023-03-18T02:59:13.380Z,4.10
2023-03-18T03:01:43.432Z,4.11
2023-03-18T03:04:10.856Z,4.08
2023-03-18T03:06:38.573Z,4.08
2023-03-18T03:09:08.024Z,4.08
2023-03-18T03:11:36.620Z,4.08
2023-03-18T03:14:04.235Z,4.01
2023-03-18T03:16:32.056Z,4.06
2023-03-18T03:18:59.390Z,4.09
2023-03-18T03:21:28.120Z,4.08
2023-03-18T03:23:55.561Z,4.11
2023-03-18T03:26:23.071Z,4.14
2023-03-18T03:28:50.425Z,4.09
2023-03-18T03:31:18.397Z,4.03
2023-03-18T03:33:45.903Z,3.97
2023-03-18T03:36:17.276Z,3.96
2023-03-18T03:38:46.267Z,3.88
2023-03-18T03:41:14.050Z,3.91
2023-03-18T03:43:43.554Z,3.85
2023-03-18T03:46:11.619Z,3.79
2023-03-18T03:48:39.894Z,3.76
2023-03-18T03:51:12.960Z,3.73
2023-03-18T03:53:42.513Z,3.72
2023-03-18T03:56:11.664Z,3.64
2023-03-18T03:58:38.782Z,3.61
2023-03-18T04:01:08.880Z,3.64
2023-03-18T04:03:36.340Z,3.57
2023-03-18T04:06:04.816Z,3.50
2023-03-18T04:08:31.897Z,3.49
2023-03-18T04:10:59.649Z,3.49
2023-03-18T04:13:26.676Z,3.54
2023-03-18T04:15:55.083Z,3.59
2023-03-18T04:18:22.631Z,3.64
2023-03-18T04:20:50.116Z,3.72
2023-03-18T04:23:17.699Z,3.68
2023-03-18T04:25:45.308Z,3.77
2023-03-18T04:28:12.415Z,3.82
2023-03-18T04:30:40.248Z,3.82
2023-03-18T04:33:07.456Z,3.82
2023-03-18T04:35:36.793Z,3.80
2023-03-18T04:38:04.868Z,3.80
2023-03-18T04:40:33.175Z,3.81
2023-03-18T04:43:00.978Z,3.76
2023-03-18T04:45:30.650Z,3.79
2023-03-18T04:47:58.812Z,3.77
2023-03-18T04:50:26.338Z,3.72
2023-03-18T04:52:53.741Z,3.69
2023-03-18T04:55:21.620Z,3.76
2023-03-18T04:57:50.773Z,3.79
2023-03-18T05:00:23.949Z,3.82
2023-03-18T05:02:51.549Z,3.80
2023-03-18T05:05:18.875Z,3.88
2023-03-18T05:07:46.047Z,3.98
2023-03-18T05:10:13.861Z,4.06
2023-03-18T05:12:48.978Z,4.16
2023-03-18T05:15:18.572Z,4.14
2023-03-18T05:17:46.110Z,4.22
2023-03-18T05:20:14.949Z,4.30
2023-03-18T05:22:42.691Z,4.38
2023-03-18T05:25:11.787Z,4.48
2023-03-18T05:27:39.341Z,4.56
2023-03-18T05:30:09.518Z,4.62
2023-03-18T05:32:36.991Z,4.70
2023-03-18T05:35:06.136Z,4.72
2023-03-18T05:37:33.739Z,4.77
2023-03-18T05:40:02.200Z,4.86
2023-03-18T05:42:31.259Z,4.92
2023-03-18T05:44:58.648Z,5.00
2023-03-18T05:47:26.208Z,5.13
2023-03-18T05:49:54.782Z,5.20
2023-03-18T05:52:23.993Z,5.26
2023-03-18T05:54:51.518Z,5.33
2023-03-18T05:57:19.340Z,5.38
2023-03-18T05:59:46.928Z,5.43
2023-03-18T06:02:16.544Z,5.45
2023-03-18T06:04:46.382Z,5.52
2023-03-18T06:07:13.760Z,5.49
2023-03-18T06:09:41.986Z,5.53
2023-03-18T06:12:09.382Z,5.55
2023-03-18T06:14:37.568Z,5.62
2023-03-18T06:17:04.970Z,5.63
2023-03-18T06:19:34.565Z,5.71
2023-03-18T06:22:01.863Z,5.77
2023-03-18T06:24:29.129Z,5.81
2023-03-18T06:26:57.644Z,5.86
2023-03-18T06:29:26.859Z,5.86
2023-03-18T06:31:55.198Z,5.92
2023-03-18T06:34:22.697Z,5.99
2023-03-18T06:36:50.239Z,6.03
2023-03-18T06:39:18.214Z,5.93
2023-03-18T06:41:46.043Z,5.91
2023-03-18T06:44:13.552Z,5.95
2023-03-18T06:46:43.709Z,5.91
2023-03-18T06:49:11.748Z,5.88
2023-03-18T06:51:39.995Z,5.89
2023-03-18T06:54:07.636Z,5.89
2023-03-18T06:56:40.372Z,5.97
2023-03-18T06:59:08.453Z,6.06
2023-03-18T07:01:37.369Z,6.12
2023-03-18T07:04:07.200Z,6.14
2023-03-18T07:06:34.293Z,6.21
2023-03-18T07:09:01.553Z,6.29
2023-03-18T07:11:28.931Z,6.46
2023-03-18T07:13:56.530Z,6.61
2023-03-18T07:16:30.922Z,6.57
2023-03-18T07:18:59.662Z,6.71
2023-03-18T07:21:33.204Z,6.69
2023-03-18T07:24:01.694Z,6.76
2023-03-18T07:26:30.348Z,6.91
2023-03-18T07:28:58.445Z,6.99
2023-03-18T07:31:25.906Z,7.08
2023-03-18T07:33:53.405Z,7.08
2023-03-18T07:36:21.032Z,7.09
2023-03-18T07:38:48.411Z,7.25
2023-03-18T07:41:15.974Z,7.36
2023-03-18T07:43:43.903Z,7.54
2023-03-18T07:46:14.371Z,7.59
2023-03-18T07:48:42.726Z,7.50
2023-03-18T07:51:10.241Z,7.48
2023-03-18T07:53:38.525Z,7.61
2023-03-18T07:56:06.455Z,7.50
2023-03-18T07:58:34.430Z,7.55
2023-03-18T08:01:02.824Z,7.58
2023-03-18T08:03:30.102Z,7.78
2023-03-18T08:05:57.714Z,7.74
2023-03-18T08:08:25.156Z,7.76
2023-03-18T08:10:57.717Z,7.84
2023-03-18T08:13:26.118Z,8.05
2023-03-18T08:15:56.494Z,8.02
2023-03-18T08:18:24.289Z,8.16
2023-03-18T08:20:53.326Z,8.08
2023-03-18T08:23:21.455Z,8.38
2023-03-18T08:25:51.230Z,8.47
2023-03-18T08:28:19.276Z,8.45
2023-03-18T08:30:47.192Z,8.55
2023-03-18T08:33:14.480Z,8.57
2023-03-18T08:35:43.060Z,8.79
2023-03-18T08:38:10.747Z,8.90
2023-03-18T08:40:41.517Z,8.89
2023-03-18T08:43:09.472Z,9.14
2023-03-18T08:45:54.175Z,9.39
2023-03-18T08:48:23.518Z,9.51
2023-03-18T08:50:50.918Z,9.37
2023-03-18T08:53:20.340Z,9.54
2023-03-18T08:55:48.835Z,9.65
2023-03-18T08:58:17.618Z,9.63
2023-03-18T09:00:45.061Z,9.72
2023-03-18T09:03:13.301Z,9.80
2023-03-18T09:05:40.660Z,10.04
2023-03-18T09:08:07.984Z,9.88
2023-03-18T09:10:36.017Z,9.92
2023-03-18T09:13:03.692Z,10.08
2023-03-18T09:15:31.976Z,10.34
2023-03-18T09:18:11.126Z,10.40
2023-03-18T09:20:41.163Z,10.67
2023-03-18T09:23:10.092Z,10.55
2023-03-18T09:25:37.644Z,10.78
2023-03-18T09:28:06.255Z,11.01
2023-03-18T09:30:34.076Z,11.31
2023-03-18T09:33:09.613Z,10.98
2023-03-18T09:35:38.103Z,11.40
2023-03-18T09:38:05.799Z,11.55
2023-03-18T09:40:40.602Z,11.77
2023-03-18T09:43:20.926Z,11.76
2023-03-18T09:46:07.057Z,11.52
2023-03-18T09:48:40.791Z,11.15
2023-03-18T09:51:13.922Z,11.33
2023-03-18T09:53:53.624Z,11.84
2023-03-18T09:56:35.168Z,11.84
2023-03-18T09:59:21.888Z,11.83
2023-03-18T10:01:55.847Z,12.29
2023-03-18T10:04:28.125Z,12.04
2023-03-18T10:07:04.348Z,11.94
2023-03-18T10:09:40.590Z,12.20
2023-03-18T10:12:21.411Z,11.89
2023-03-18T10:15:04.718Z,11.72
2023-03-18T10:17:39.177Z,12.60
2023-03-18T10:20:17.977Z,12.73
2023-03-18T10:23:01.240Z,12.67
2023-03-18T10:25:55.084Z,12.49
2023-03-18T10:28:56.678Z,13.08
2023-03-18T10:32:00.234Z,13.05
2023-03-18T10:34:54.391Z,13.43
2023-03-18T10:38:07.000Z,13.32
2023-03-18T10:40:41.554Z,13.27
2023-03-18T10:43:28.560Z,13.53
2023-03-18T10:46:07.652Z,13.47
2023-03-18T10:48:41.230Z,13.79
2023-03-18T10:51:33.948Z,13.80
2023-03-18T10:54:16.179Z,13.67
2023-03-18T10:56:43.762Z,13.21
2023-03-18T10:59:16.572Z,13.31
2023-03-18T11:01:48.527Z,12.95
2023-03-18T11:04:24.010Z,13.04
2023-03-18T11:07:03.987Z,12.71
2023-03-18T11:09:34.345Z,12.95
2023-03-18T11:12:07.158Z,13.74
2023-03-18T11:14:38.437Z,14.03
2023-03-18T11:17:19.994Z,13.82
2023-03-18T11:19:49.626Z,13.49
2023-03-18T11:22:28.360Z,13.60
2023-03-18T11:25:13.379Z,13.17
2023-03-18T11:27:46.648Z,13.31
2023-03-18T11:30:34.876Z,12.87
2023-03-18T11:33:12.671Z,12.81
2023-03-18T11:35:46.425Z,12.82
2023-03-18T11:38:22.041Z,13.07
2023-03-18T11:40:49.572Z,13.38
2023-03-18T11:43:20.946Z,13.22
2023-03-18T11:45:51.567Z,13.74
2023-03-18T11:48:39.642Z,13.80
2023-03-18T11:51:28.973Z,14.28
2023-03-18T11:54:14.515Z,14.56
2023-03-18T11:56:47.260Z,14.47
2023-03-18T11:59:25.818Z,14.35
2023-03-18T12:01:57.977Z,14.74
2023-03-18T12:04:53.974Z,14.35
2023-03-18T12:07:38.194Z,14.26
2023-03-18T12:10:24.980Z,14.52
2023-03-18T12:13:29.962Z,14.46
2023-03-18T12:16:19.107Z,14.45
2023-03-18T12:19:20.208Z,14.72
2023-03-18T12:21:53.114Z,14.66
2023-03-18T12:24:40.382Z,15.44
2023-03-18T12:27:32.791Z,15.10
2023-03-18T12:30:12.979Z,15.56
2023-03-18T12:33:18.586Z,14.78
2023-03-18T12:36:03.438Z,14.68
2023-03-18T12:38:54.945Z,14.80
2023-03-18T12:41:28.276Z,14.97
2023-03-18T12:44:15.845Z,15.70
2023-03-18T12:47:09.775Z,16.37
2023-03-18T12:49:45.470Z,16.15
2023-03-18T12:52:24.931Z,15.53
2023-03-18T12:55:07.938Z,15.77
2023-03-18T12:57:44.546Z,15.44
2023-03-18T13:00:28.324Z,15.50
2023-03-18T13:03:07.232Z,15.15
2023-03-18T13:05:59.198Z,14.87
2023-03-18T13:08:42.387Z,14.73
2023-03-18T13:11:36.861Z,14.81
2023-03-18T13:14:26.563Z,14.32
2023-03-18T13:16:56.542Z,14.54
2023-03-18T13:19:24.464Z,14.32
2023-03-18T13:22:07.836Z,14.68
2023-03-18T13:25:03.965Z,14.64
2023-03-18T13:28:11.050Z,14.79
2023-03-18T13:31:00.604Z,14.47
2023-03-18T13:33:46.256Z,14.89
2023-03-18T13:36:47.644Z,15.69
2023-03-18T13:39:19.777Z,15.04
2023-03-18T13:42:05.608Z,15.49
2023-03-18T13:44:46.318Z,15.92
2023-03-18T13:47:23.793Z,15.55
2023-03-18T13:50:05.034Z,15.60
2023-03-18T13:52:48.156Z,15.20
2023-03-18T13:55:47.695Z,15.53
2023-03-18T13:58:30.669Z,15.73
2023-03-18T14:01:21.216Z,15.54
2023-03-18T14:03:51.869Z,15.57
2023-03-18T14:06:36.055Z,15.71
2023-03-18T14:09:33.232Z,15.19
2023-03-18T14:12:39.233Z,15.70
2023-03-18T14:15:09.626Z,15.56
2023-03-18T14:17:58.785Z,15.25
2023-03-18T14:20:45.253Z,14.82
2023-03-18T14:23:37.574Z,14.97
2023-03-18T14:26:22.292Z,15.38
2023-03-18T14:29:15.820Z,15.13
2023-03-18T14:31:43.532Z,14.96
2023-03-18T14:34:20.080Z,15.11
2023-03-18T14:36:53.104Z,14.64
2023-03-18T14:39:31.808Z,14.69
2023-03-18T14:42:02.938Z,14.77
2023-03-18T14:44:54.976Z,15.07
2023-03-18T14:47:40.682Z,14.92
2023-03-18T14:50:22.457Z,14.81
2023-03-18T14:53:12.782Z,14.63
2023-03-18T14:55:40.675Z,14.96
2023-03-18T14:58:18.763Z,14.99
2023-03-18T15:00:52.761Z,15.34
2023-03-18T15:03:25.157Z,15.65
2023-03-18T15:05:58.412Z,15.55
2023-03-18T15:08:44.613Z,16.10
2023-03-18T15:11:20.754Z,15.88
2023-03-18T15:13:48.234Z,15.54
2023-03-18T15:16:20.375Z,15.81
2023-03-18T15:18:54.074Z,15.67
2023-03-18T15:21:26.184Z,15.78
2023-03-18T15:23:57.824Z,16.10
2023-03-18T15:26:31.547Z,15.24
2023-03-18T15:29:00.600Z,14.96
2023-03-18T15:31:32.740Z,15.13
2023-03-18T15:34:21.189Z,15.44
2023-03-18T15:36:57.388Z,14.81
2023-03-18T15:39:41.299Z,15.21
2023-03-18T15:42:17.832Z,15.07
2023-03-18T15:44:58.790Z,14.92
2023-03-18T15:47:32.529Z,14.99
2023-03-18T15:50:01.406Z,14.42
2023-03-18T15:52:34.505Z,14.36
2023-03-18T15:55:02.182Z,14.09
2023-03-18T15:57:43.829Z,13.97
2023-03-18T16:00:13.647Z,13.79
2023-03-18T16:02:42.166Z,13.61
2023-03-18T16:05:19.662Z,13.41
2023-03-18T16:07:48.379Z,13.44
2023-03-18T16:10:20.541Z,13.38
2023-03-18T16:12:55.869Z,13.36
2023-03-18T16:15:26.318Z,13.28
2023-03-18T16:17:55.530Z,13.19
2023-03-18T16:20:26.423Z,12.99
2023-03-18T16:22:54.474Z,12.97
2023-03-18T16:25:24.422Z,12.77
2023-03-18T16:27:54.837Z,12.83
2023-03-18T16:30:31.354Z,12.79
2023-03-18T16:32:59.474Z,12.68
2023-03-18T16:35:33.092Z,12.52
2023-03-18T16:38:01.103Z,12.40
2023-03-18T16:40:32.371Z,12.28
2023-03-18T16:43:02.864Z,12.27
2023-03-18T16:45:34.487Z,12.17
2023-03-18T16:48:07.670Z,12.14
2023-03-18T16:50:38.568Z,12.07
2023-03-18T16:53:18.639Z,12.02
2023-03-18T16:55:48.630Z,11.91
2023-03-18T16:58:23.153Z,11.83
2023-03-18T17:00:51.759Z,11.70
2023-03-18T17:03:20.021Z,11.61
2023-03-18T17:05:52.437Z,11.50
2023-03-18T17:08:22.386Z,11.43
2023-03-18T17:10:53.881Z,11.46
2023-03-18T17:13:26.498Z,11.28
2023-03-18T17:15:54.268Z,11.20
2023-03-18T17:18:23.986Z,11.05
2023-03-18T17:20:57.922Z,11.04
2023-03-18T17:23:29.071Z,10.94
2023-03-18T17:26:01.166Z,10.88
2023-03-18T17:28:39.323Z,10.81
2023-03-18T17:31:08.256Z,10.75
2023-03-18T17:33:37.559Z,10.70
2023-03-18T17:36:07.140Z,10.66
2023-03-18T17:38:37.873Z,10.57
2023-03-18T17:41:13.435Z,10.54
2023-03-18T17:43:42.746Z,10.50
2023-03-18T17:46:11.742Z,10.49
2023-03-18T17:48:41.907Z,10.44
2023-03-18T17:51:21.571Z,10.41
2023-03-18T17:53:52.060Z,10.33
2023-03-18T17:56:20.876Z,10.30
2023-03-18T17:58:52.262Z,10.29
2023-03-18T18:01:29.960Z,10.22
2023-03-18T18:04:00.229Z,10.19
2023-03-18T18:06:29.943Z,10.14
2023-03-18T18:09:09.584Z,10.07
2023-03-18T18:11:44.545Z,10.01
2023-03-18T18:14:26.048Z,9.97
2023-03-18T18:16:56.948Z,9.88
2023-03-18T18:19:25.216Z,9.91
2023-03-18T18:22:03.510Z,9.87
2023-03-18T18:24:34.231Z,9.76
2023-03-18T18:27:03.672Z,9.71
2023-03-18T18:29:35.082Z,9.67
2023-03-18T18:32:03.145Z,9.64
2023-03-18T18:34:33.619Z,9.58
2023-03-18T18:37:03.724Z,9.56
2023-03-18T18:39:31.849Z,9.53
2023-03-18T18:42:00.465Z,9.48
2023-03-18T18:44:29.338Z,9.40
2023-03-18T18:46:58.169Z,9.39
2023-03-18T18:49:27.106Z,9.39
2023-03-18T18:51:57.393Z,9.37
2023-03-18T18:54:26.276Z,9.34
2023-03-18T18:56:55.785Z,9.31
2023-03-18T18:59:29.334Z,9.28
2023-03-18T19:01:57.924Z,9.29
2023-03-18T19:04:27.799Z,9.26
2023-03-18T19:06:56.557Z,9.22
2023-03-18T19:09:31.162Z,9.16
2023-03-18T19:12:00.710Z,9.18
2023-03-18T19:14:30.364Z,9.15
2023-03-18T19:17:00.757Z,9.16
2023-03-18T19:19:34.332Z,9.14
2023-03-18T19:22:04.963Z,9.08
2023-03-18T19:24:40.471Z,9.05
2023-03-18T19:27:27.586Z,8.95
2023-03-18T19:30:06.040Z,8.90
2023-03-18T19:32:35.526Z,8.86
2023-03-18T19:35:03.744Z,8.83
2023-03-18T19:37:33.309Z,8.80
2023-03-18T19:40:07.672Z,8.72
2023-03-18T19:42:36.879Z,8.71
2023-03-18T19:45:07.569Z,8.67
2023-03-18T19:47:36.973Z,8.67
2023-03-18T19:50:19.173Z,8.73
2023-03-18T19:52:48.579Z,8.70
2023-03-18T19:55:17.752Z,8.70
2023-03-18T19:57:51.611Z,8.66
2023-03-18T20:00:26.002Z,8.65
2023-03-18T20:02:54.201Z,8.62
2023-03-18T20:05:25.512Z,8.60
2023-03-18T20:07:53.841Z,8.60
2023-03-18T20:10:26.824Z,8.55
2023-03-18T20:12:54.646Z,8.56
2023-03-18T20:15:29.081Z,8.56
2023-03-18T20:18:04.626Z,8.53
2023-03-18T20:20:39.673Z,8.43
2023-03-18T20:23:13.404Z,8.50
2023-03-18T20:25:43.272Z,8.41
2023-03-18T20:28:23.833Z,8.33
2023-03-18T20:30:56.872Z,8.29
2023-03-18T20:33:25.173Z,8.29
2023-03-18T20:35:56.922Z,8.23
2023-03-18T20:38:38.340Z,8.23
2023-03-18T20:41:18.477Z,8.16
2023-03-18T20:43:50.761Z,8.14
2023-03-18T20:46:23.839Z,8.10
2023-03-18T20:48:59.501Z,8.06
2023-03-18T20:51:35.181Z,8.02
2023-03-18T20:54:39.370Z,8.03
2023-03-18T20:57:12.182Z,8.01
2023-03-18T20:59:40.672Z,7.99
2023-03-18T21:02:36.825Z,8.02
2023-03-18T21:05:19.289Z,7.97
2023-03-18T21:07:50.165Z,7.93
2023-03-18T21:10:26.372Z,7.95
2023-03-18T21:12:55.338Z,7.87
2023-03-18T21:15:26.899Z,7.92
2023-03-18T21:17:55.579Z,7.87
2023-03-18T21:20:40.308Z,7.80
2023-03-18T21:23:29.206Z,7.78
2023-03-18T21:25:58.184Z,7.74
2023-03-18T21:28:31.829Z,7.70
2023-03-18T21:31:03.088Z,7.62
2023-03-18T21:33:33.697Z,7.55
2023-03-18T21:36:02.585Z,7.63
2023-03-18T21:38:31.962Z,7.54
2023-03-18T21:41:02.765Z,7.55
2023-03-18T21:43:34.476Z,7.51
2023-03-18T21:46:04.393Z,7.55
2023-03-18T21:48:32.700Z,7.56
2023-03-18T21:51:00.410Z,7.55
2023-03-18T21:53:28.963Z,7.55
2023-03-18T21:55:56.614Z,7.48
2023-03-18T21:58:28.615Z,7.48
2023-03-18T22:01:01.494Z,7.43
2023-03-18T22:03:35.028Z,7.42
2023-03-18T22:06:14.055Z,7.32
2023-03-18T22:08:42.316Z,7.43
2023-03-18T22:11:18.747Z,7.43
2023-03-18T22:13:47.888Z,7.44
2023-03-18T22:16:16.856Z,7.41
2023-03-18T22:18:47.595Z,7.36
2023-03-18T22:21:23.669Z,7.29
2023-03-18T22:23:52.090Z,7.11
2023-03-18T22:26:20.386Z,7.00
2023-03-18T22:28:50.930Z,6.95
2023-03-18T22:31:26.308Z,7.09
2023-03-18T22:33:54.397Z,7.08
2023-03-18T22:36:22.212Z,7.00
2023-03-18T22:38:50.257Z,6.86
2023-03-18T22:41:24.645Z,7.12
2023-03-18T22:43:52.450Z,7.05
2023-03-18T22:46:20.214Z,7.05
2023-03-18T22:48:53.728Z,7.06
2023-03-18T22:51:27.756Z,7.07
2023-03-18T22:53:55.638Z,7.02
2023-03-18T22:56:24.218Z,7.07
2023-03-18T22:58:52.173Z,7.02
2023-03-18T23:01:23.326Z,7.07
2023-03-18T23:03:56.898Z,7.04
2023-03-18T23:06:27.499Z,7.03
2023-03-18T23:08:54.795Z,7.04
2023-03-18T23:11:22.240Z,7.02
2023-03-18T23:13:52.442Z,6.93
2023-03-18T23:16:22.405Z,7.03
2023-03-18T23:18:50.858Z,7.03
2023-03-18T23:21:22.144Z,6.95
2023-03-18T23:23:49.838Z,6.88
2023-03-18T23:26:17.621Z,6.87
2023-03-18T23:28:46.213Z,6.84
2023-03-18T23:31:16.878Z,6.84
2023-03-18T23:33:45.482Z,6.78
2023-03-18T23:36:13.285Z,6.80
2023-03-18T23:38:41.025Z,6.70
2023-03-18T23:41:08.628Z,6.72
2023-03-18T23:43:35.983Z,6.61
2023-03-18T23:46:04.107Z,6.62
2023-03-18T23:48:31.870Z,6.55
2023-03-18T23:50:59.189Z,6.51
2023-03-18T23:53:26.528Z,6.46
2023-03-18T23:55:53.771Z,6.40
2023-03-18T23:58:21.344Z,6.45
